Home > Products > Valid Products > TAF

000
FTPQ31 PGUM 272320
TAFGUM
TAF
PGUM 272320Z 2800/2906 11009KT P6SM VCSH SCT020 SCT060=



000
FTPQ31 PGUM 271723
TAFGUM
TAF
PGUM 271723Z 2718/2824 10007KT P6SM VCSH FEW015 SCT050
     FM280100 11010KT P6SM VCSH SCT020 SCT120=



000
FTPQ31 PGUM 251120
TAFGUM
TAF
PGUM 251120Z 2512/2618 11008KT P6SM FEW020
     FM260000 10011KT P6SM VCSH SCT020 SCT050=



    US Dept of Commerce
    National Oceanic and Atmospheric Administration
    National Weather Service
    1325 East West Highway
    Silver Spring, MD 20910
    Page Author: NWS Internet Services Team
Disclaimer
Information Quality
Credits
Glossary
Privacy Policy
Freedom of Information Act (FOIA)
About Us
Career Opportunities